LJLJ METAR and TAF | Updated Today

LJLJ METAR

Ljubljana Jože Pučnik Airport

Observation time: 13 min. ago

LJLJ 061830Z 13006KT 9999 FEW033 SCT130 M02/M09 Q1035 NOSIG

Need help? Read our tutorial on how to read METARs or read the parsed version below.

Ljubljana Jože Pučnik Airport (LJLJ) METAR

  • Weather conditions on Mon, 06 Feb 2023 18:30:00 +0000 (13 min. ago):
  • Present conditions: Dry
  • Clouds: A few at 1006 meters; scattered at 3962 meters
  • Visibility: Greater than 10 km
  • Wind: 130 degrees at 6 knots
  • Temperature: -2 celsius
  • Dew point: -9 celsius
  • Pressure: 1035 millibars
  • Remarks: None


Useful to know...

LJLJ TAF

Ljubljana Jože Pučnik Airport

TAF LJLJ 061700Z 0618/0718 13004KT 9999 FEW033
Observation time: 1:43 hr. ago
Need help? Read our tutorial on how to read TAFs or read the parsed version below.

Parsed version of TAF for Ljubljana Jože Pučnik Airport (LJLJ)

  • From 06 February at 18:00 UTC, to day 07 of the month at 18:00 UTC
  • Clouds: A few at 1006 meters
  • Visibility: Greater than 10 km
  • Wind: 130 degrees at 4